Time;durP1;ratioP1;P1;durP2;ratioP2;P2;SDS_P1;SDS_P2;PMS_P1;PMS_P2;Temp;Humidity;BMP_temperature;BMP_pressure;BME280_temperature;BME280_humidity;BME280_pressure;Samples;Min_cycle;Max_cycle;Signal;HPM_P1;HPM_P2
2023/05/11 00:00:08;;;;;;;20.98;17.75;;;12.10;99.90;;;;;;4991234;28;20499;-72
2023/05/11 00:02:34;;;;;;;21.70;19.13;;;12.10;99.90;;;;;;4993201;28;20509;-73
2023/05/11 00:05:00;;;;;;;21.30;17.63;;;12.20;99.90;;;;;;4989417;28;20118;-73
2023/05/11 00:07:26;;;;;;;21.55;19.23;;;12.10;99.90;;;;;;4982418;28;20038;-73
2023/05/11 00:09:52;;;;;;;21.42;18.67;;;12.10;99.90;;;;;;4983347;28;20043;-72
2023/05/11 00:12:18;;;;;;;21.23;18.30;;;12.10;99.90;;;;;;4986807;28;20046;-73
2023/05/11 00:14:43;;;;;;;22.52;18.98;;;12.20;99.90;;;;;;4987981;28;20031;-73
2023/05/11 00:17:10;;;;;;;21.55;19.25;;;12.20;99.90;;;;;;5001314;28;20042;-72
2023/05/11 00:19:36;;;;;;;21.08;17.95;;;12.20;99.90;;;;;;4980296;28;20606;-73
2023/05/11 00:22:02;;;;;;;23.33;18.63;;;12.10;99.90;;;;;;4981034;28;20129;-72
2023/05/11 00:24:28;;;;;;;22.25;19.08;;;12.10;99.90;;;;;;5001443;28;20044;-73
2023/05/11 00:26:54;;;;;;;21.75;18.98;;;12.10;99.90;;;;;;4989334;28;20048;-72
2023/05/11 00:29:20;;;;;;;22.52;19.15;;;12.10;99.90;;;;;;4983268;28;20042;-72
2023/05/11 00:31:47;;;;;;;20.63;18.42;;;12.10;99.90;;;;;;4984614;28;20039;-72
2023/05/11 00:34:16;;;;;;;20.35;18.20;;;12.00;99.90;;;;;;4981368;28;20073;-72
2023/05/11 00:36:42;;;;;;;21.33;19.02;;;12.00;99.90;;;;;;5021084;28;20065;-73
2023/05/11 00:39:09;;;;;;;19.30;17.17;;;12.00;99.90;;;;;;4979342;28;20451;-72
2023/05/11 00:41:35;;;;;;;22.77;18.95;;;12.00;99.90;;;;;;4998946;28;20140;-72
2023/05/11 00:44:00;;;;;;;21.30;19.00;;;12.00;99.90;;;;;;4987736;28;20113;-72
2023/05/11 00:46:29;;;;;;;20.00;17.67;;;11.90;99.90;;;;;;4981425;28;20545;-72
2023/05/11 00:48:55;;;;;;;20.23;18.02;;;11.90;99.90;;;;;;4996697;28;20045;-72
2023/05/11 00:51:21;;;;;;;20.08;17.50;;;11.90;99.90;;;;;;5002332;28;20042;-72
2023/05/11 00:53:48;;;;;;;21.02;17.85;;;11.90;99.90;;;;;;4972666;28;20053;-72
2023/05/11 00:56:14;;;;;;;19.40;17.38;;;11.90;99.90;;;;;;4978669;28;20126;-73
2023/05/11 00:58:40;;;;;;;21.17;18.05;;;11.90;99.90;;;;;;4984097;28;20466;-73
2023/05/11 01:01:06;;;;;;;20.13;17.98;;;11.90;99.90;;;;;;4985378;28;20046;-72
2023/05/11 01:03:34;;;;;;;22.60;20.10;;;11.90;99.90;;;;;;4984162;28;20602;-73
2023/05/11 01:06:31;;;;;;;23.55;19.35;;;11.90;99.90;;;;;;4988930;28;20494;-72
2023/05/11 01:09:07;;;;;;;23.05;18.95;;;11.90;99.90;;;;;;4974387;28;20398;-72
2023/05/11 01:12:06;;;;;;;24.02;19.63;;;11.90;99.90;;;;;;4988472;28;20045;-72
2023/05/11 01:14:59;;;;;;;21.27;19.02;;;11.90;99.90;;;;;;4989384;28;20112;-72
2023/05/11 01:17:50;;;;;;;23.33;20.00;;;11.90;99.90;;;;;;4996689;28;20064;-72
2023/05/11 01:20:20;;;;;;;23.88;20.42;;;11.90;99.90;;;;;;4980257;28;20053;-72
2023/05/11 01:23:09;;;;;;;22.45;20.08;;;11.80;99.90;;;;;;4979796;28;20129;-72
2023/05/11 01:26:07;;;;;;;27.20;21.25;;;11.90;99.90;;;;;;4974772;28;20042;-73
2023/05/11 01:28:52;;;;;;;26.17;21.45;;;11.80;99.90;;;;;;4984963;28;20243;-72
2023/05/11 01:31:19;;;;;;;24.88;21.23;;;11.90;99.90;;;;;;4997744;28;20411;-72
2023/05/11 01:33:57;;;;;;;28.52;21.60;;;11.80;99.90;;;;;;4997406;28;20198;-72
2023/05/11 01:36:32;;;;;;;26.70;20.10;;;11.80;99.90;;;;;;4980136;28;20112;-72
2023/05/11 01:39:07;;;;;;;30.27;23.00;;;11.80;99.90;;;;;;4983297;28;20438;-72
2023/05/11 01:41:33;;;;;;;;;;;11.80;99.90;;;;;;4979150;28;20050;-72
2023/05/11 01:44:04;;;;;;;30.45;22.35;;;11.80;99.90;;;;;;4999790;28;19924;-72
2023/05/11 01:46:32;;;;;;;27.00;22.75;;;11.80;99.90;;;;;;4978196;28;20043;-73
2023/05/11 01:49:00;;;;;;;31.27;23.45;;;11.80;99.90;;;;;;4985295;28;20049;-72
2023/05/11 01:51:31;;;;;;;28.15;22.75;;;11.80;99.90;;;;;;4994562;28;20053;-73
2023/05/11 01:53:58;;;;;;;31.58;23.58;;;11.80;99.90;;;;;;4980947;28;20043;-72
2023/05/11 01:56:29;;;;;;;28.75;23.00;;;11.80;99.90;;;;;;4979102;28;20491;-74
2023/05/11 01:58:56;;;;;;;28.27;22.08;;;11.80;99.90;;;;;;5001822;28;20049;-73
2023/05/11 02:01:23;;;;;;;28.70;22.58;;;11.80;99.90;;;;;;4994518;28;20043;-73
2023/05/11 02:03:50;;;;;;;27.17;21.83;;;11.80;99.90;;;;;;5000461;28;20041;-72
2023/05/11 02:06:17;;;;;;;26.85;21.90;;;11.80;99.90;;;;;;5011109;28;20031;-72
2023/05/11 02:08:45;;;;;;;25.25;21.13;;;11.80;99.90;;;;;;4984279;28;20062;-73
2023/05/11 02:11:13;;;;;;;27.90;22.52;;;11.80;99.90;;;;;;4996083;28;20073;-72
2023/05/11 02:13:42;;;;;;;30.42;22.98;;;11.70;99.90;;;;;;4998118;28;20042;-72
2023/05/11 02:16:09;;;;;;;28.90;22.63;;;11.80;99.90;;;;;;4983491;28;20145;-73
2023/05/11 02:18:38;;;;;;;28.88;21.98;;;11.80;99.90;;;;;;4980606;28;20475;-72
2023/05/11 02:21:06;;;;;;;28.38;22.40;;;11.80;99.90;;;;;;5003298;28;20602;-72
2023/05/11 02:23:33;;;;;;;26.98;21.15;;;11.80;99.90;;;;;;4982597;28;20368;-73
2023/05/11 02:25:59;;;;;;;25.17;21.13;;;11.80;99.90;;;;;;4968529;28;20696;-72
2023/05/11 02:28:25;;;;;;;24.10;21.55;;;11.80;99.90;;;;;;4998747;28;20038;-73
2023/05/11 02:30:54;;;;;;;27.88;21.85;;;11.80;99.90;;;;;;4983574;28;20034;-73
2023/05/11 02:33:33;;;;;;;26.73;22.35;;;11.80;99.90;;;;;;4972108;28;20185;-73
2023/05/11 02:36:01;;;;;;;26.15;21.92;;;11.80;99.90;;;;;;4984329;28;20038;-72
2023/05/11 02:38:33;;;;;;;26.67;21.45;;;11.80;99.90;;;;;;4981528;28;20042;-73
2023/05/11 02:41:11;;;;;;;26.50;21.83;;;11.80;99.90;;;;;;4984371;28;20054;-72
2023/05/11 02:43:41;;;;;;;28.38;21.95;;;11.70;99.90;;;;;;4977645;28;20039;-73
2023/05/11 02:46:13;;;;;;;24.70;21.40;;;11.70;99.90;;;;;;5001847;28;20034;-72
2023/05/11 02:48:44;;;;;;;26.30;21.50;;;11.70;99.90;;;;;;4979888;28;20043;-73
2023/05/11 02:51:13;;;;;;;28.17;23.20;;;11.70;99.90;;;;;;4973855;28;20049;-73
2023/05/11 02:53:40;;;;;;;28.15;22.08;;;11.70;99.90;;;;;;4994637;28;20031;-73
2023/05/11 02:56:07;;;;;;;29.27;22.02;;;11.70;99.90;;;;;;4983332;28;20038;-74
2023/05/11 02:58:33;;;;;;;28.70;22.02;;;11.70;99.90;;;;;;4977080;28;20034;-73
2023/05/11 03:01:00;;;;;;;28.25;21.58;;;11.70;99.90;;;;;;4976946;28;20491;-72
2023/05/11 03:03:26;;;;;;;30.20;22.77;;;11.70;99.90;;;;;;4994462;28;20799;-73
2023/05/11 03:05:52;;;;;;;35.08;24.48;;;11.70;99.90;;;;;;5000585;28;20066;-72
2023/05/11 03:08:18;;;;;;;32.92;23.40;;;11.70;99.90;;;;;;4998930;28;20498;-72
2023/05/11 03:10:45;;;;;;;29.52;22.30;;;11.70;99.90;;;;;;4982134;28;20379;-73
2023/05/11 03:13:11;;;;;;;29.77;22.75;;;11.70;99.90;;;;;;4980368;28;20042;-73
2023/05/11 03:15:38;;;;;;;30.88;23.20;;;11.70;99.90;;;;;;4983978;28;20044;-73
2023/05/11 03:18:05;;;;;;;34.63;23.63;;;11.70;99.90;;;;;;4976798;28;20145;-73
2023/05/11 03:20:34;;;;;;;39.13;23.63;;;11.60;99.90;;;;;;5003830;28;20043;-73
2023/05/11 03:23:00;;;;;;;35.78;25.50;;;11.60;99.90;;;;;;4979820;28;20047;-73
2023/05/11 03:25:27;;;;;;;37.88;25.77;;;11.60;99.90;;;;;;4982826;28;20050;-73
2023/05/11 03:27:54;;;;;;;37.67;25.88;;;11.60;99.90;;;;;;4979289;28;20038;-73
2023/05/11 03:30:21;;;;;;;40.53;25.90;;;11.60;99.90;;;;;;4977725;28;20125;-73
2023/05/11 03:32:47;;;;;;;35.83;24.58;;;11.60;99.90;;;;;;4972482;28;20038;-73
2023/05/11 03:35:13;;;;;;;37.33;24.33;;;11.60;99.90;;;;;;5001033;28;20076;-73
2023/05/11 03:37:39;;;;;;;33.03;22.80;;;11.60;99.90;;;;;;4981422;28;20042;-73
2023/05/11 03:40:07;;;;;;;34.15;24.70;;;11.60;99.90;;;;;;5000501;28;20410;-73
2023/05/11 03:42:34;;;;;;;35.47;24.67;;;11.50;99.90;;;;;;4988445;28;20713;-73
2023/05/11 03:45:01;;;;;;;36.80;25.42;;;11.50;99.90;;;;;;4993480;28;20506;-73
2023/05/11 03:47:28;;;;;;;41.45;26.38;;;11.50;99.90;;;;;;4998264;28;20039;-74
2023/05/11 03:49:55;;;;;;;36.28;25.42;;;11.50;99.90;;;;;;4995488;28;20659;-73
2023/05/11 03:52:22;;;;;;;42.92;27.25;;;11.50;99.90;;;;;;4982356;28;20053;-73
2023/05/11 03:54:48;;;;;;;48.55;29.27;;;11.50;99.90;;;;;;4988341;28;20585;-74
2023/05/11 03:57:14;;;;;;;48.75;28.92;;;11.50;99.90;;;;;;5008090;28;20711;-73
2023/05/11 03:59:40;;;;;;;42.00;28.30;;;11.40;99.90;;;;;;4976319;28;20506;-72
2023/05/11 04:02:07;;;;;;;36.58;24.90;;;11.40;99.90;;;;;;5001699;28;20042;-74
2023/05/11 04:04:33;;;;;;;35.13;23.95;;;11.40;99.90;;;;;;4986705;28;20084;-73
2023/05/11 04:06:58;;;;;;;39.58;26.65;;;11.40;99.90;;;;;;4990834;28;20070;-72
2023/05/11 04:09:24;;;;;;;39.17;25.45;;;11.40;99.90;;;;;;4973893;28;20039;-74
2023/05/11 04:11:50;;;;;;;43.72;26.33;;;11.40;99.90;;;;;;4984379;28;20043;-72
2023/05/11 04:14:19;;;;;;;33.45;24.75;;;11.40;99.90;;;;;;4982477;28;20074;-73
2023/05/11 04:16:45;;;;;;;38.47;24.02;;;11.40;99.90;;;;;;4987340;28;20046;-74
2023/05/11 04:19:11;;;;;;;38.03;25.30;;;11.40;99.90;;;;;;4985523;28;20415;-73
2023/05/11 04:21:37;;;;;;;34.30;24.95;;;11.40;99.90;;;;;;4981666;28;20043;-73
2023/05/11 04:24:03;;;;;;;38.80;25.75;;;11.40;99.90;;;;;;4986981;28;20057;-73
2023/05/11 04:26:29;;;;;;;32.42;23.10;;;11.40;99.90;;;;;;4970160;28;20035;-73
2023/05/11 04:28:54;;;;;;;30.27;22.58;;;11.40;99.90;;;;;;4972947;28;20557;-73
2023/05/11 04:31:20;;;;;;;35.72;23.45;;;11.40;99.90;;;;;;4984872;28;20398;-73
2023/05/11 04:33:46;;;;;;;33.15;22.67;;;11.40;99.90;;;;;;4983798;28;20409;-73
2023/05/11 04:36:12;;;;;;;34.92;23.30;;;11.40;99.90;;;;;;4980048;28;20073;-73
2023/05/11 04:38:37;;;;;;;35.03;22.95;;;11.40;99.90;;;;;;4984392;28;20451;-73
2023/05/11 04:41:04;;;;;;;31.97;23.57;;;11.40;99.90;;;;;;4999606;28;20423;-73
2023/05/11 04:43:30;;;;;;;32.67;23.02;;;11.50;99.90;;;;;;4986392;28;20050;-72
2023/05/11 04:45:58;;;;;;;34.33;23.70;;;11.50;99.90;;;;;;4999599;28;20049;-73
2023/05/11 04:48:25;;;;;;;36.20;25.27;;;11.50;99.90;;;;;;4984839;28;20038;-73
2023/05/11 04:50:51;;;;;;;46.33;26.88;;;11.40;99.90;;;;;;4983286;28;20487;-73
2023/05/11 04:53:16;;;;;;;39.00;26.27;;;11.40;99.90;;;;;;4985655;28;20079;-73
2023/05/11 04:55:42;;;;;;;43.83;26.02;;;11.40;99.90;;;;;;4979806;28;20050;-73
2023/05/11 04:58:08;;;;;;;45.75;27.25;;;11.50;99.90;;;;;;4998398;28;20046;-73
2023/05/11 05:00:35;;;;;;;53.88;31.02;;;11.50;99.90;;;;;;4983978;28;20038;-73
2023/05/11 05:03:01;;;;;;;56.72;30.40;;;11.50;99.90;;;;;;4980956;28;20136;-73
2023/05/11 05:05:27;;;;;;;55.97;30.98;;;11.40;99.90;;;;;;4996656;28;20447;-73
2023/05/11 05:07:53;;;;;;;60.58;31.13;;;11.40;99.90;;;;;;4980935;28;20128;-73
2023/05/11 05:10:18;;;;;;;56.28;30.90;;;11.40;99.90;;;;;;4987438;28;20046;-73
2023/05/11 05:12:44;;;;;;;56.17;29.15;;;11.40;99.90;;;;;;4977358;28;20586;-72
2023/05/11 05:15:10;;;;;;;71.47;34.72;;;11.40;99.90;;;;;;4986610;28;20053;-72
2023/05/11 05:17:36;;;;;;;68.63;35.17;;;11.50;99.90;;;;;;4981070;28;20047;-72
2023/05/11 05:20:03;;;;;;;68.80;35.15;;;11.50;99.90;;;;;;4983695;28;20104;-72
2023/05/11 05:22:29;;;;;;;72.60;34.35;;;11.50;99.90;;;;;;4976076;28;20077;-73
2023/05/11 05:24:55;;;;;;;82.50;36.80;;;11.50;99.90;;;;;;4984293;28;20739;-72
2023/05/11 05:27:21;;;;;;;74.47;35.22;;;11.50;99.90;;;;;;4998829;28;20056;-72
2023/05/11 05:29:47;;;;;;;74.38;36.35;;;11.50;99.90;;;;;;4985746;28;20039;-72
2023/05/11 05:32:12;;;;;;;71.63;35.42;;;11.50;99.90;;;;;;4980357;28;20379;-73
2023/05/11 05:34:38;;;;;;;74.03;34.28;;;11.50;99.90;;;;;;4981918;28;20050;-72
2023/05/11 05:37:04;;;;;;;78.63;36.30;;;11.50;99.90;;;;;;4998859;28;20038;-73
2023/05/11 05:39:29;;;;;;;96.97;38.75;;;11.60;99.90;;;;;;4982437;28;20112;-72
2023/05/11 05:41:55;;;;;;;74.15;36.35;;;11.60;99.90;;;;;;4981603;28;20090;-72
2023/05/11 05:44:21;;;;;;;73.38;35.17;;;11.60;99.90;;;;;;4980479;28;20038;-72
2023/05/11 05:46:47;;;;;;;81.40;35.97;;;11.60;99.90;;;;;;4999933;28;20119;-71
2023/05/11 05:49:12;;;;;;;75.32;35.33;;;11.60;99.90;;;;;;4999757;28;20042;-72
2023/05/11 05:51:38;;;;;;;72.10;33.63;;;11.70;99.90;;;;;;4983744;28;20038;-71
2023/05/11 05:54:04;;;;;;;65.03;32.33;;;11.70;99.90;;;;;;4987084;28;20458;-72
2023/05/11 05:56:30;;;;;;;65.22;32.78;;;11.80;99.90;;;;;;4988130;28;20077;-72
2023/05/11 05:58:56;;;;;;;72.22;33.80;;;11.80;99.90;;;;;;4999386;28;20047;-72
2023/05/11 06:01:22;;;;;;;60.30;31.25;;;11.80;99.90;;;;;;4982635;28;20454;-72
2023/05/11 06:03:50;;;;;;;57.00;29.67;;;11.80;99.90;;;;;;5003322;28;20585;-72
2023/05/11 06:06:16;;;;;;;52.58;28.73;;;11.90;99.90;;;;;;4988393;28;20042;-73
2023/05/11 06:08:42;;;;;;;56.70;30.63;;;11.90;99.90;;;;;;4986915;28;20497;-71
2023/05/11 06:11:08;;;;;;;56.47;29.40;;;11.90;99.90;;;;;;4984913;28;20038;-72
2023/05/11 06:13:34;;;;;;;52.60;29.23;;;11.90;99.90;;;;;;4986746;28;20396;-72
2023/05/11 06:16:00;;;;;;;68.50;30.85;;;12.00;99.90;;;;;;4985288;28;20081;-72
2023/05/11 06:18:26;;;;;;;54.28;29.40;;;12.00;99.90;;;;;;4971103;28;20054;-72
2023/05/11 06:20:52;;;;;;;58.22;30.48;;;11.90;99.90;;;;;;5000084;28;20030;-72
2023/05/11 06:23:18;;;;;;;53.35;30.75;;;11.90;99.90;;;;;;4982647;28;20055;-72
2023/05/11 06:25:43;;;;;;;47.80;28.88;;;11.90;99.90;;;;;;5001034;28;20448;-73
2023/05/11 06:28:09;;;;;;;53.40;29.20;;;12.00;99.90;;;;;;5002501;28;20034;-72
2023/05/11 06:30:35;;;;;;;53.65;30.80;;;12.00;99.90;;;;;;4981008;28;20038;-72
2023/05/11 06:33:00;;;;;;;52.05;29.05;;;12.00;99.90;;;;;;4968775;28;20074;-72
2023/05/11 06:35:26;;;;;;;48.08;30.17;;;12.00;99.90;;;;;;4966932;28;20491;-73
2023/05/11 06:37:52;;;;;;;47.58;28.15;;;12.00;99.90;;;;;;4971265;28;20094;-72
2023/05/11 06:40:17;;;;;;;52.05;29.48;;;12.10;99.90;;;;;;4962946;28;20058;-72
2023/05/11 06:42:43;;;;;;;52.17;30.63;;;12.00;99.90;;;;;;4979461;28;20483;-72
2023/05/11 06:45:09;;;;;;;51.85;30.17;;;12.10;99.90;;;;;;4996240;28;20054;-72
2023/05/11 06:47:35;;;;;;;49.88;29.90;;;12.10;99.90;;;;;;4986244;28;20042;-72
2023/05/11 06:50:01;;;;;;;40.22;26.67;;;12.10;99.90;;;;;;4992593;28;20047;-73
2023/05/11 06:52:27;;;;;;;34.67;23.77;;;12.10;99.90;;;;;;4995138;28;20491;-72
2023/05/11 06:54:52;;;;;;;33.15;22.75;;;12.10;99.90;;;;;;4981886;28;20041;-73
2023/05/11 06:57:18;;;;;;;32.90;22.35;;;12.10;99.90;;;;;;4989024;28;20050;-73
2023/05/11 06:59:44;;;;;;;34.25;22.45;;;12.10;99.90;;;;;;4974154;28;20122;-71
2023/05/11 07:02:10;;;;;;;57.80;24.52;;;12.10;99.90;;;;;;4980279;28;20051;-71
2023/05/11 07:04:36;;;;;;;71.68;25.73;;;12.10;99.90;;;;;;4982054;28;20054;-67
2023/05/11 07:07:02;;;;;;;51.67;26.55;;;12.20;99.90;;;;;;4981025;28;20097;-67
2023/05/11 07:09:28;;;;;;;46.88;29.95;;;12.20;99.90;;;;;;4988866;28;20038;-67
2023/05/11 07:11:54;;;;;;;36.45;22.98;;;12.10;99.90;;;;;;4984584;28;20057;-69
2023/05/11 07:14:20;;;;;;;46.28;23.88;;;12.10;99.90;;;;;;4999555;28;20054;-68
2023/05/11 07:16:46;;;;;;;34.58;22.23;;;12.10;99.90;;;;;;4983847;28;20125;-67
2023/05/11 07:19:13;;;;;;;33.28;21.52;;;12.10;99.90;;;;;;4999035;28;20077;-68
2023/05/11 07:21:38;;;;;;;37.92;21.80;;;12.10;99.90;;;;;;4986389;28;20053;-68
2023/05/11 07:24:04;;;;;;;37.97;23.00;;;12.10;99.90;;;;;;4997299;28;20049;-67
2023/05/11 07:26:30;;;;;;;48.85;24.30;;;12.10;99.90;;;;;;4985365;28;20157;-68
2023/05/11 07:28:56;;;;;;;30.23;19.65;;;12.10;99.90;;;;;;4985902;28;20222;-68
2023/05/11 07:31:22;;;;;;;31.30;21.05;;;12.10;99.90;;;;;;5016045;28;20038;-68
2023/05/11 07:33:47;;;;;;;36.95;21.52;;;12.20;99.90;;;;;;4989150;28;20501;-68
2023/05/11 07:36:13;;;;;;;28.13;17.95;;;12.10;99.90;;;;;;4979266;28;20130;-68
2023/05/11 07:38:39;;;;;;;52.70;21.83;;;12.10;99.90;;;;;;4998694;28;20396;-67
2023/05/11 07:41:05;;;;;;;59.58;20.20;;;12.20;99.90;;;;;;4986218;28;20402;-68
2023/05/11 07:43:30;;;;;;;46.42;20.95;;;12.10;99.90;;;;;;4984623;28;20046;-68
2023/05/11 07:45:56;;;;;;;34.80;19.02;;;12.20;99.90;;;;;;4980364;28;20119;-68
2023/05/11 07:48:22;;;;;;;42.88;20.33;;;12.20;99.90;;;;;;5002553;28;20070;-67
2023/05/11 07:50:51;;;;;;;34.33;19.40;;;12.30;99.90;;;;;;4985623;28;20043;-67
2023/05/11 07:53:16;;;;;;;35.47;18.25;;;12.30;99.90;;;;;;4988592;28;20474;-67
2023/05/11 07:55:42;;;;;;;33.78;18.33;;;12.20;99.90;;;;;;4980794;28;20050;-67
2023/05/11 07:58:08;;;;;;;30.15;17.45;;;12.20;99.90;;;;;;4998008;28;20065;-68
2023/05/11 08:00:34;;;;;;;34.13;17.42;;;12.20;99.90;;;;;;4984496;28;20536;-68
2023/05/11 08:03:00;;;;;;;33.67;15.80;;;12.20;99.90;;;;;;4980968;28;20046;-67
2023/05/11 08:05:26;;;;;;;31.23;15.95;;;12.20;99.90;;;;;;4980503;28;20341;-68
2023/05/11 08:07:52;;;;;;;24.60;15.18;;;12.30;99.90;;;;;;4980476;28;20046;-67
2023/05/11 08:10:18;;;;;;;28.27;16.30;;;12.30;99.90;;;;;;4988336;28;20398;-67
2023/05/11 08:12:43;;;;;;;25.10;15.38;;;12.30;99.90;;;;;;4986976;28;20117;-67
2023/05/11 08:15:09;;;;;;;30.50;16.60;;;12.30;99.90;;;;;;4988517;28;20403;-67
2023/05/11 08:17:36;;;;;;;32.72;17.02;;;12.40;99.90;;;;;;4987988;28;20131;-67
2023/05/11 08:20:03;;;;;;;31.60;17.10;;;12.40;99.90;;;;;;4986948;28;20038;-68
2023/05/11 08:22:29;;;;;;;31.08;16.08;;;12.50;99.90;;;;;;4994175;28;20043;-67
2023/05/11 08:24:55;;;;;;;21.98;12.50;;;12.60;99.90;;;;;;4985999;28;20101;-68
2023/05/11 08:27:21;;;;;;;17.65;12.25;;;12.50;99.90;;;;;;4979769;28;20038;-68
2023/05/11 08:29:47;;;;;;;14.38;10.75;;;12.60;99.90;;;;;;5004595;28;20422;-67
2023/05/11 08:32:12;;;;;;;19.58;14.32;;;12.50;99.90;;;;;;4987512;28;20384;-68
2023/05/11 08:34:38;;;;;;;24.70;13.73;;;12.50;99.90;;;;;;4983968;28;20053;-68
2023/05/11 08:37:04;;;;;;;15.05;8.88;;;12.60;99.90;;;;;;4989303;28;20038;-67
2023/05/11 08:39:32;;;;;;;13.32;8.63;;;12.60;99.90;;;;;;4984995;28;20105;-68
2023/05/11 08:42:00;;;;;;;12.80;8.35;;;12.60;99.90;;;;;;4983001;28;20069;-68
2023/05/11 08:44:37;;;;;;;16.90;8.70;;;12.70;99.90;;;;;;5012939;28;20039;-67
2023/05/11 08:47:17;;;;;;;12.60;8.02;;;12.70;99.90;;;;;;4985096;28;20802;-68
2023/05/11 08:49:58;;;;;;;8.50;6.28;;;12.80;99.90;;;;;;4984515;28;20046;-70
2023/05/11 08:52:33;;;;;;;10.27;6.38;;;12.80;99.90;;;;;;4998472;28;20133;-69
2023/05/11 08:55:07;;;;;;;5.78;4.53;;;12.90;99.90;;;;;;4981800;28;20082;-68
2023/05/11 08:57:41;;;;;;;6.07;4.17;;;13.10;99.90;;;;;;4983124;28;20081;-70
2023/05/11 09:00:15;;;;;;;21.70;17.58;;;13.20;99.90;;;;;;4983783;28;20181;-71
2023/05/11 09:02:45;;;;;;;3.67;3.10;;;13.20;99.90;;;;;;5000906;28;20563;-70
2023/05/11 09:05:12;;;;;;;4.75;3.83;;;13.30;99.90;;;;;;4984414;28;20045;-70
2023/05/11 09:07:40;;;;;;;5.57;3.70;;;13.30;99.90;;;;;;5001482;28;20076;-70
2023/05/11 09:10:07;;;;;;;3.38;2.83;;;13.40;99.90;;;;;;4977742;28;20169;-70
2023/05/11 09:12:34;;;;;;;6.65;2.92;;;13.50;99.90;;;;;;4980937;28;20147;-69
2023/05/11 09:15:00;;;;;;;3.28;2.88;;;13.60;99.90;;;;;;4982776;28;20108;-70
2023/05/11 09:17:27;;;;;;;4.50;3.28;;;13.60;99.90;;;;;;4981239;28;20050;-69
2023/05/11 09:20:04;;;;;;;4.95;3.35;;;13.70;99.90;;;;;;4987808;28;20045;-69
2023/05/11 09:22:40;;;;;;;5.03;3.53;;;13.70;99.90;;;;;;4981066;28;20636;-69
2023/05/11 09:25:06;;;;;;;4.53;3.58;;;13.80;99.90;;;;;;4984024;28;20064;-70
2023/05/11 09:27:32;;;;;;;3.72;3.10;;;13.90;99.90;;;;;;5000067;28;20054;-69
2023/05/11 09:30:23;;;;;;;4.00;3.13;;;13.90;99.90;;;;;;4982418;28;20043;-69
2023/05/11 09:32:59;;;;;;;2.47;2.00;;;14.00;99.90;;;;;;5001466;28;20057;-69
2023/05/11 09:35:33;;;;;;;2.10;1.58;;;14.00;99.90;;;;;;5002254;28;20085;-69
2023/05/11 09:38:10;;;;;;;2.00;1.37;;;14.10;99.90;;;;;;4999062;28;20158;-69
2023/05/11 09:40:43;;;;;;;1.42;1.17;;;14.10;99.90;;;;;;4977361;28;20054;-70
2023/05/11 09:43:16;;;;;;;1.48;1.08;;;14.10;99.90;;;;;;4977418;28;20045;-70
2023/05/11 09:45:45;;;;;;;2.28;0.75;;;14.50;99.90;;;;;;4983141;28;20082;-70
2023/05/11 09:48:19;;;;;;;1.45;0.60;;;14.90;99.90;;;;;;4977062;28;20060;-70
2023/05/11 09:50:50;;;;;;;0.88;0.52;;;15.10;99.90;;;;;;4994083;28;20034;-69
2023/05/11 09:53:16;;;;;;;1.10;0.60;;;15.30;99.90;;;;;;4978032;28;20042;-70
2023/05/11 09:55:51;;;;;;;0.63;0.50;;;15.30;99.90;;;;;;5001647;28;20073;-70
2023/05/11 09:58:17;;;;;;;1.33;0.80;;;15.40;99.90;;;;;;4981384;28;20042;-70
2023/05/11 10:00:50;;;;;;;1.10;0.90;;;15.50;99.90;;;;;;4993728;28;20045;-70
2023/05/11 10:03:16;;;;;;;1.20;1.10;;;15.60;99.90;;;;;;4987174;28;20035;-70
2023/05/11 10:05:55;;;;;;;1.67;1.33;;;15.60;99.90;;;;;;5001830;28;20077;-70
2023/05/11 10:08:29;;;;;;;1.90;1.63;;;15.40;99.90;;;;;;4981566;28;20372;-70
2023/05/11 10:10:55;;;;;;;2.40;1.70;;;15.40;99.90;;;;;;4998734;28;20161;-69
2023/05/11 10:13:22;;;;;;;2.03;1.83;;;15.50;99.90;;;;;;4994780;28;20034;-70
2023/05/11 10:15:50;;;;;;;2.15;1.50;;;15.70;99.90;;;;;;4984082;28;20134;-70
2023/05/11 10:18:16;;;;;;;1.70;1.60;;;15.90;99.90;;;;;;4987580;28;20050;-70
2023/05/11 10:20:45;;;;;;;2.47;2.28;;;16.00;99.90;;;;;;4983100;28;20047;-69
2023/05/11 10:23:12;;;;;;;3.70;3.40;;;15.90;99.90;;;;;;4981338;28;20047;-70
2023/05/11 10:25:38;;;;;;;4.15;3.20;;;15.80;99.90;;;;;;4985905;28;20073;-70
2023/05/11 10:28:05;;;;;;;2.53;2.20;;;15.80;99.90;;;;;;4997338;28;20062;-70
2023/05/11 10:30:33;;;;;;;2.42;1.90;;;15.70;99.90;;;;;;4980650;28;20037;-70
2023/05/11 10:33:00;;;;;;;1.42;1.20;;;15.60;99.90;;;;;;4998218;28;20116;-70
2023/05/11 10:35:26;;;;;;;1.83;1.45;;;15.60;99.90;;;;;;4983682;28;20042;-70
2023/05/11 10:37:52;;;;;;;3.15;2.22;;;15.60;99.90;;;;;;4998956;28;20053;-69
2023/05/11 10:40:18;;;;;;;2.80;2.50;;;15.60;99.90;;;;;;4994634;28;20050;-70
2023/05/11 10:43:03;;;;;;;3.05;2.25;;;15.60;99.90;;;;;;4988949;28;20047;-70
2023/05/11 10:45:43;;;;;;;3.28;2.97;;;15.70;99.90;;;;;;4998688;28;20406;-70
2023/05/11 10:48:25;;;;;;;4.40;4.00;;;15.70;99.90;;;;;;4978710;28;20054;-70
2023/05/11 10:51:09;;;;;;;5.43;4.13;;;15.80;99.90;;;;;;4991772;28;20038;-71
2023/05/11 10:54:06;;;;;;;5.60;4.97;;;16.00;99.90;;;;;;4989258;28;20045;-70
2023/05/11 10:57:05;;;;;;;7.18;5.63;;;16.40;99.90;;;;;;4997365;28;20077;-70
2023/05/11 11:00:08;;;;;;;7.90;7.20;;;16.80;99.90;;;;;;4996326;28;20170;-70
2023/05/11 11:02:34;;;;;;;8.38;7.57;;;17.20;99.90;;;;;;4986586;28;20053;-72
2023/05/11 11:05:04;;;;;;;8.52;7.72;;;17.40;99.90;;;;;;4998849;28;20125;-72
2023/05/11 11:07:30;;;;;;;7.60;6.90;;;17.40;99.90;;;;;;5002162;28;20046;-72
2023/05/11 11:09:59;;;;;;;6.82;6.13;;;17.50;99.90;;;;;;4999561;28;20116;-72
2023/05/11 11:12:26;;;;;;;7.22;6.60;;;17.50;99.90;;;;;;4988953;28;20046;-72
2023/05/11 11:14:57;;;;;;;7.45;6.65;;;17.60;99.90;;;;;;4977969;28;20046;-72
2023/05/11 11:17:30;;;;;;;6.97;6.35;;;17.40;99.90;;;;;;4984231;28;20054;-72
2023/05/11 11:19:57;;;;;;;7.97;6.85;;;17.30;99.90;;;;;;4986096;28;20047;-71
2023/05/11 11:22:35;;;;;;;8.48;7.68;;;17.40;99.90;;;;;;4988599;28;20039;-72
2023/05/11 11:25:04;;;;;;;7.70;7.00;;;17.20;99.90;;;;;;4979326;28;20137;-71
2023/05/11 11:27:47;;;;;;;8.48;7.78;;;17.10;99.90;;;;;;4988646;28;20126;-72
2023/05/11 11:30:25;;;;;;;8.23;7.40;;;17.10;99.90;;;;;;4999191;28;20039;-72
2023/05/11 11:32:53;;;;;;;9.10;8.20;;;17.10;99.90;;;;;;4990926;28;20042;-72
2023/05/11 11:35:40;;;;;;;8.88;8.00;;;17.10;99.90;;;;;;4978528;28;20058;-72
2023/05/11 11:38:14;;;;;;;9.85;8.95;;;16.90;99.90;;;;;;4983396;28;20555;-72
2023/05/11 11:40:53;;;;;;;9.00;8.10;;;16.80;99.90;;;;;;4988568;28;20487;-72
2023/05/11 11:43:23;;;;;;;9.27;8.38;;;16.80;99.90;;;;;;5014255;28;20134;-72
2023/05/11 11:45:59;;;;;;;9.77;8.88;;;16.90;99.90;;;;;;4989054;28;20039;-72
2023/05/11 11:48:36;;;;;;;10.18;9.27;;;16.80;99.90;;;;;;4987417;28;20100;-72
2023/05/11 11:51:04;;;;;;;10.00;9.10;;;16.70;99.90;;;;;;5001963;28;20038;-73
2023/05/11 11:53:36;;;;;;;10.93;9.85;;;16.70;99.90;;;;;;5000772;28;20042;-73
2023/05/11 11:56:03;;;;;;;11.98;10.43;;;16.80;99.90;;;;;;5000625;28;20042;-73
2023/05/11 11:58:41;;;;;;;11.45;10.25;;;17.00;99.90;;;;;;4984430;28;20133;-73
2023/05/11 12:01:08;;;;;;;10.75;9.75;;;17.10;99.90;;;;;;4986014;28;20050;-73
2023/05/11 12:03:36;;;;;;;11.60;10.35;;;17.10;99.90;;;;;;4998545;28;20043;-74
2023/05/11 12:06:04;;;;;;;10.57;9.48;;;17.10;99.90;;;;;;4983411;28;20078;-74
2023/05/11 12:08:31;;;;;;;10.80;9.10;;;17.10;99.90;;;;;;4983924;28;20038;-73
2023/05/11 12:10:57;;;;;;;10.68;9.68;;;17.20;99.90;;;;;;4984969;28;20046;-73
2023/05/11 12:13:24;;;;;;;9.95;9.05;;;17.20;99.90;;;;;;4974379;28;20039;-73
2023/05/11 12:16:06;;;;;;;10.57;9.55;;;17.30;99.90;;;;;;4977283;28;20035;-73
2023/05/11 12:18:31;;;;;;;11.75;10.55;;;17.50;99.90;;;;;;4996635;28;20543;-74
2023/05/11 12:20:57;;;;;;;12.63;11.07;;;17.60;99.90;;;;;;4985988;28;20046;-74
2023/05/11 12:23:23;;;;;;;10.60;9.60;;;17.50;99.90;;;;;;4987556;28;20092;-74
2023/05/11 12:26:03;;;;;;;11.15;10.10;;;17.50;99.90;;;;;;4983761;28;20132;-74
2023/05/11 12:28:29;;;;;;;11.02;9.15;;;17.50;99.90;;;;;;4983885;28;20067;-74
2023/05/11 12:30:55;;;;;;;10.90;9.90;;;17.60;99.90;;;;;;4986770;28;20050;-74
2023/05/11 12:33:21;;;;;;;10.00;9.00;;;17.80;99.90;;;;;;4979346;28;20405;-74
2023/05/11 12:35:54;;;;;;;8.93;8.13;;;17.90;99.90;;;;;;5003546;28;20038;-74
2023/05/11 12:38:20;;;;;;;10.32;9.43;;;18.00;99.90;;;;;;5001646;28;20125;-74
2023/05/11 12:40:50;;;;;;;9.23;8.38;;;18.00;99.90;;;;;;4984019;28;20416;-74